Time;durP1;ratioP1;P1;durP2;ratioP2;P2;SDS_P1;SDS_P2;PMS_P1;PMS_P2;Temp;Humidity;BMP_temperature;BMP_pressure;BME280_temperature;BME280_humidity;BME280_pressure;Samples;Min_cycle;Max_cycle;Signal;HPM_P1;HPM_P2
2023/08/09 00:00:59;;;;;;;;;;;;;;;16.00;66.57;97742.19;5107055;27;4583;-78
2023/08/09 00:03:51;;;;;;;;;;;;;;;15.90;66.74;97742.53;5107329;27;4894;-78
2023/08/09 00:06:42;;;;;;;;;;;;;;;15.90;66.81;97756.09;5107524;27;4847;-77
2023/08/09 00:09:34;;;;;;;;;;;;;;;15.93;66.63;97757.38;5119613;27;4785;-75
2023/08/09 00:12:25;;;;;;;;;;;;;;;15.96;66.54;97765.66;5109509;27;4811;-77
2023/08/09 00:15:17;;;;;;;;;;;;;;;16.07;66.21;97764.19;5105042;27;4467;-77
2023/08/09 00:18:08;;;;;;;;;;;;;;;16.10;66.15;97773.63;5111006;27;4974;-76
2023/08/09 00:21:01;;;;;;;;;;;;;;;16.03;66.24;97776.84;5114289;27;4852;-77
2023/08/09 00:23:52;;;;;;;;;;;;;;;15.96;66.48;97789.28;5115048;27;4902;-77
2023/08/09 00:26:44;;;;;;;;;;;;;;;15.95;66.47;97785.78;5112644;27;4823;-75
2023/08/09 00:29:36;;;;;;;;;;;;;;;16.01;66.26;97789.13;5113533;27;4874;-76
2023/08/09 00:32:27;;;;;;;;;;;;;;;15.99;66.27;97797.59;5115267;27;4828;-77
2023/08/09 00:35:19;;;;;;;;;;;;;;;16.10;65.88;97801.56;5113144;27;4830;-77
2023/08/09 00:38:11;;;;;;;;;;;;;;;16.07;65.93;97807.63;5107576;27;4002;-77
2023/08/09 00:41:03;;;;;;;;;;;;;;;16.11;65.77;97810.50;5106562;27;4755;-76
2023/08/09 00:43:55;;;;;;;;;;;;;;;16.10;65.83;97820.56;5105517;27;4925;-76
2023/08/09 00:46:47;;;;;;;;;;;;;;;16.04;66.04;97821.84;5107097;27;4883;-77
2023/08/09 00:49:39;;;;;;;;;;;;;;;16.22;65.31;97819.13;5104538;27;4851;-76
2023/08/09 00:52:31;;;;;;;;;;;;;;;16.20;65.39;97829.50;5109761;27;4604;-77
2023/08/09 00:55:23;;;;;;;;;;;;;;;16.13;65.53;97838.91;5105473;27;4795;-77
2023/08/09 00:58:14;;;;;;;;;;;;;;;16.11;65.68;97834.94;5104953;27;4684;-76
2023/08/09 01:01:07;;;;;;;;;;;;;;;16.15;65.63;97844.03;5104203;27;4831;-76
2023/08/09 01:03:58;;;;;;;;;;;;;;;16.04;65.78;97846.28;5102787;27;4590;-76
2023/08/09 01:06:51;;;;;;;;;;;;;;;15.99;66.06;97854.59;5104552;27;4705;-78
2023/08/09 01:09:42;;;;;;;;;;;;;;;16.28;64.94;97859.34;5105688;27;4397;-78
2023/08/09 01:12:34;;;;;;;;;;;;;;;16.24;64.95;97869.25;5106094;27;4614;-76
2023/08/09 01:15:25;;;;;;;;;;;;;;;16.25;64.83;97872.78;5104876;27;4705;-78
2023/08/09 01:18:17;;;;;;;;;;;;;;;16.21;65.09;97880.78;5106041;27;4698;-76
2023/08/09 01:21:10;;;;;;;;;;;;;;;16.27;64.97;97887.63;5104257;27;4883;-76
2023/08/09 01:24:02;;;;;;;;;;;;;;;16.27;64.93;97894.97;5105933;27;4677;-77
2023/08/09 01:26:53;;;;;;;;;;;;;;;16.34;64.45;97904.22;5104450;27;4762;-76
2023/08/09 01:29:46;;;;;;;;;;;;;;;16.59;63.83;97909.94;5105277;27;4517;-78
2023/08/09 01:32:38;;;;;;;;;;;;;;;16.36;64.57;97909.34;5106129;27;4950;-77
2023/08/09 01:35:30;;;;;;;;;;;;;;;16.30;64.76;97924.22;5105995;27;6055;-78
2023/08/09 01:38:21;;;;;;;;;;;;;;;16.35;64.40;97927.56;5105766;27;4847;-78
2023/08/09 01:41:14;;;;;;;;;;;;;;;16.11;65.20;97941.59;5105580;27;4692;-78
2023/08/09 01:44:07;;;;;;;;;;;;;;;16.39;64.25;97935.06;5114945;27;4941;-76
2023/08/09 01:46:58;;;;;;;;;;;;;;;16.44;64.03;97943.84;5114444;27;4914;-77
2023/08/09 01:49:51;;;;;;;;;;;;;;;16.40;64.14;97959.19;5115756;27;4886;-77
2023/08/09 01:52:42;;;;;;;;;;;;;;;16.33;64.34;97961.59;5110271;27;4931;-76
2023/08/09 01:55:35;;;;;;;;;;;;;;;16.23;64.61;97976.28;5111177;27;4778;-77
2023/08/09 01:58:27;;;;;;;;;;;;;;;16.28;64.35;97978.03;5115418;27;4745;-77
2023/08/09 02:01:19;;;;;;;;;;;;;;;16.38;64.19;97980.41;5111607;27;4895;-76
2023/08/09 02:04:11;;;;;;;;;;;;;;;16.28;64.47;97981.56;5112487;27;4622;-77
2023/08/09 02:07:03;;;;;;;;;;;;;;;16.26;64.46;97991.13;5111847;27;4884;-77
2023/08/09 02:09:54;;;;;;;;;;;;;;;15.70;64.88;97933.13;5110974;27;4846;-77
2023/08/09 02:12:47;;;;;;;;;;;;;;;16.21;64.59;98000.25;5112537;27;4975;-77
2023/08/09 02:15:38;;;;;;;;;;;;;;;16.72;62.86;98004.06;5106119;27;4756;-76
2023/08/09 02:18:30;;;;;;;;;;;;;;;16.61;63.17;98005.50;5102720;27;4891;-79
2023/08/09 02:21:22;;;;;;;;;;;;;;;16.34;64.15;98014.78;5104739;27;4674;-76
2023/08/09 02:24:13;;;;;;;;;;;;;;;16.28;64.34;98018.78;5104720;27;4797;-77
2023/08/09 02:27:06;;;;;;;;;;;;;;;16.31;64.19;98023.56;5104909;27;4843;-75
2023/08/09 02:29:58;;;;;;;;;;;;;;;16.38;63.99;98029.31;5106746;27;4753;-77
2023/08/09 02:32:50;;;;;;;;;;;;;;;16.31;63.96;98031.72;5104563;27;4712;-76
2023/08/09 02:35:41;;;;;;;;;;;;;;;16.47;63.59;98043.72;5108113;27;4770;-76
2023/08/09 02:38:33;;;;;;;;;;;;;;;16.61;63.05;98048.97;5102703;27;4525;-75
2023/08/09 02:41:27;;;;;;;;;;;;;;;16.53;63.24;98058.75;5102743;27;4871;-77
2023/08/09 02:44:19;;;;;;;;;;;;;;;16.47;63.44;98056.47;5107991;27;4732;-77
2023/08/09 02:47:11;;;;;;;;;;;;;;;16.71;62.72;98064.97;5102780;27;4603;-76
2023/08/09 02:50:03;;;;;;;;;;;;;;;16.49;63.29;98078.72;5106533;27;4815;-78
2023/08/09 02:52:55;;;;;;;;;;;;;;;16.49;63.48;98076.00;5103907;27;4843;-76
2023/08/09 02:55:47;;;;;;;;;;;;;;;16.34;63.70;98088.13;5103379;27;4598;-75
2023/08/09 02:58:38;;;;;;;;;;;;;;;16.56;62.98;98098.88;5105460;27;4815;-78
2023/08/09 03:01:31;;;;;;;;;;;;;;;16.46;63.46;98101.88;5101253;27;3911;-77
2023/08/09 03:04:23;;;;;;;;;;;;;;;16.61;62.81;98108.75;5103980;27;4597;-77
2023/08/09 03:07:16;;;;;;;;;;;;;;;16.68;62.58;98109.09;5106848;27;4811;-77
2023/08/09 03:10:07;;;;;;;;;;;;;;;16.43;63.36;98118.81;5107645;28;4873;-78
2023/08/09 03:13:00;;;;;;;;;;;;;;;16.36;63.46;98126.63;5117229;27;4792;-76
2023/08/09 03:15:52;;;;;;;;;;;;;;;16.53;63.17;98123.94;5119248;27;4827;-76
2023/08/09 03:18:44;;;;;;;;;;;;;;;16.47;63.31;98137.97;5120662;27;4637;-77
2023/08/09 03:21:36;;;;;;;;;;;;;;;16.55;62.90;98148.06;5076763;28;4885;-77
2023/08/09 03:24:28;;;;;;;;;;;;;;;16.25;63.86;98147.06;5075775;28;4848;-78
2023/08/09 03:27:20;;;;;;;;;;;;;;;16.56;62.68;98152.41;5076669;28;4770;-77
2023/08/09 03:30:11;;;;;;;;;;;;;;;16.44;63.18;98169.31;5075434;28;4830;-77
2023/08/09 03:33:04;;;;;;;;;;;;;;;16.30;63.73;98174.06;5078900;28;4668;-76
2023/08/09 03:35:56;;;;;;;;;;;;;;;16.38;63.59;98172.47;5078382;28;4869;-76
2023/08/09 03:38:48;;;;;;;;;;;;;;;15.96;63.36;98123.94;5080447;28;4660;-77
2023/08/09 03:41:40;;;;;;;;;;;;;;;16.34;63.41;98191.34;5077246;28;4790;-76
2023/08/09 03:44:31;;;;;;;;;;;;;;;16.22;63.93;98196.56;5075119;28;4885;-77
2023/08/09 03:47:24;;;;;;;;;;;;;;;16.31;63.63;98206.34;5071663;28;4469;-76
2023/08/09 03:50:17;;;;;;;;;;;;;;;16.28;63.69;98201.53;5070625;28;4616;-76
2023/08/09 03:53:08;;;;;;;;;;;;;;;16.45;63.06;98214.38;5070979;28;4896;-75
2023/08/09 03:56:00;;;;;;;;;;;;;;;16.37;63.27;98217.88;5070670;28;4870;-75
2023/08/09 03:58:53;;;;;;;;;;;;;;;16.28;63.53;98230.63;5073248;28;4647;-77
2023/08/09 04:01:45;;;;;;;;;;;;;;;16.34;63.52;98234.78;5071978;28;4837;-76
2023/08/09 04:04:37;;;;;;;;;;;;;;;16.33;63.48;98241.34;5071447;28;4728;-77
2023/08/09 04:07:29;;;;;;;;;;;;;;;16.24;63.54;98249.44;5074987;28;4857;-77
2023/08/09 04:10:21;;;;;;;;;;;;;;;16.21;63.76;98250.09;5068814;28;4811;-77
2023/08/09 04:13:13;;;;;;;;;;;;;;;16.17;64.01;98249.09;5066359;28;4680;-77
2023/08/09 04:16:05;;;;;;;;;;;;;;;16.17;63.99;98251.00;5071702;28;4764;-77
2023/08/09 04:18:57;;;;;;;;;;;;;;;16.20;63.73;98269.38;5064827;28;4708;-74
2023/08/09 04:21:49;;;;;;;;;;;;;;;16.04;64.19;98275.22;5067474;28;4779;-76
2023/08/09 04:24:40;;;;;;;;;;;;;;;16.20;63.89;98283.75;5065242;28;4801;-78
2023/08/09 04:27:33;;;;;;;;;;;;;;;16.11;64.13;98288.34;5065237;28;4959;-78
2023/08/09 04:30:25;;;;;;;;;;;;;;;16.04;64.07;98288.00;5064793;28;4585;-76
2023/08/09 04:33:18;;;;;;;;;;;;;;;16.02;64.18;98292.94;5069446;28;4601;-77
2023/08/09 04:36:10;;;;;;;;;;;;;;;16.15;63.90;98299.38;5066049;28;4620;-77
2023/08/09 04:39:02;;;;;;;;;;;;;;;16.10;63.85;98305.75;5068170;28;4647;-75
2023/08/09 04:41:54;;;;;;;;;;;;;;;16.04;63.98;98309.72;5067750;28;4866;-77
2023/08/09 04:44:46;;;;;;;;;;;;;;;16.11;63.85;98316.28;5066675;28;4606;-76
2023/08/09 04:47:37;;;;;;;;;;;;;;;16.12;63.88;98327.97;5067675;28;4805;-77
2023/08/09 04:50:30;;;;;;;;;;;;;;;16.12;63.57;98327.97;5074682;28;5104;-75
2023/08/09 04:53:22;;;;;;;;;;;;;;;16.02;64.05;98328.22;5073799;28;4908;-75
2023/08/09 04:56:13;;;;;;;;;;;;;;;16.12;63.88;98339.63;5065172;28;4633;-76
2023/08/09 04:59:05;;;;;;;;;;;;;;;15.97;64.07;98342.75;5064756;28;4708;-75
2023/08/09 05:01:57;;;;;;;;;;;;;;;15.96;64.24;98351.97;5071391;28;4849;-76
2023/08/09 05:04:49;;;;;;;;;;;;;;;15.90;64.60;98356.72;5074711;28;4766;-78
2023/08/09 05:07:41;;;;;;;;;;;;;;;15.91;64.52;98371.09;5072900;28;4900;-77
2023/08/09 05:10:33;;;;;;;;;;;;;;;16.03;64.07;98368.66;5077874;28;4728;-76
2023/08/09 05:13:25;;;;;;;;;;;;;;;16.04;63.92;98378.38;5067908;28;4691;-77
2023/08/09 05:16:17;;;;;;;;;;;;;;;15.93;64.34;98387.88;5071477;28;4908;-78
2023/08/09 05:19:09;;;;;;;;;;;;;;;15.87;64.36;98379.06;5073200;28;4847;-77
2023/08/09 05:22:01;;;;;;;;;;;;;;;15.98;64.21;98395.91;5112641;27;4834;-77
2023/08/09 05:24:53;;;;;;;;;;;;;;;15.98;64.15;98395.91;5111852;27;4898;-78
2023/08/09 05:27:47;;;;;;;;;;;;;;;15.98;64.23;98416.84;5112279;27;4883;-77
2023/08/09 05:30:38;;;;;;;;;;;;;;;15.82;64.43;98419.06;5113343;27;4902;-77
2023/08/09 05:33:30;;;;;;;;;;;;;;;15.91;64.34;98422.66;5111934;27;4983;-77
2023/08/09 05:36:22;;;;;;;;;;;;;;;15.95;64.22;98423.69;5112696;27;4877;-77
2023/08/09 05:39:14;;;;;;;;;;;;;;;15.79;64.69;98435.97;5114118;27;4863;-76
2023/08/09 05:42:06;;;;;;;;;;;;;;;15.81;64.62;98437.28;5108751;27;4926;-77
2023/08/09 05:44:59;;;;;;;;;;;;;;;15.82;64.56;98452.44;5111426;27;4856;-75
2023/08/09 05:47:50;;;;;;;;;;;;;;;15.87;64.48;98456.97;5106853;27;4943;-77
2023/08/09 05:50:43;;;;;;;;;;;;;;;15.87;64.29;98459.69;5113973;27;4890;-79
2023/08/09 05:53:35;;;;;;;;;;;;;;;15.80;64.44;98457.41;5117149;27;4825;-77
2023/08/09 05:56:27;;;;;;;;;;;;;;;15.72;64.76;98470.88;5109952;27;4779;-76
2023/08/09 05:59:19;;;;;;;;;;;;;;;15.69;64.84;98469.56;5111701;27;4638;-76
2023/08/09 06:02:11;;;;;;;;;;;;;;;15.83;64.32;98474.97;5110411;27;4713;-77
2023/08/09 06:05:03;;;;;;;;;;;;;;;15.79;64.52;98484.81;5113081;27;4839;-77
2023/08/09 06:07:56;;;;;;;;;;;;;;;15.83;64.50;98488.56;5111207;27;4825;-77
2023/08/09 06:10:48;;;;;;;;;;;;;;;15.84;64.24;98490.94;5109481;27;4558;-76
2023/08/09 06:13:39;;;;;;;;;;;;;;;15.82;64.46;98498.56;5112282;27;4920;-76
2023/08/09 06:16:30;;;;;;;;;;;;;;;15.69;64.72;98498.63;5112093;27;4651;-78
2023/08/09 06:19:22;;;;;;;;;;;;;;;15.73;64.54;98516.69;5111549;27;4685;-76
2023/08/09 06:22:14;;;;;;;;;;;;;;;15.98;63.79;98518.06;5102405;27;4804;-76
2023/08/09 06:25:06;;;;;;;;;;;;;;;15.84;64.05;98528.94;5104429;27;4728;-77
2023/08/09 06:27:59;;;;;;;;;;;;;;;15.95;63.84;98537.69;5107608;27;4761;-76
2023/08/09 06:30:50;;;;;;;;;;;;;;;15.90;63.98;98538.59;5105543;27;4834;-76
2023/08/09 06:33:42;;;;;;;;;;;;;;;15.73;64.55;98549.25;5110589;27;4713;-76
2023/08/09 06:36:33;;;;;;;;;;;;;;;15.67;64.61;98551.25;5103416;27;4929;-76
2023/08/09 06:39:25;;;;;;;;;;;;;;;15.87;63.93;98552.78;5099211;27;4583;-77
2023/08/09 06:42:17;;;;;;;;;;;;;;;15.88;63.82;98564.44;5101677;28;4909;-76
2023/08/09 06:45:08;;;;;;;;;;;;;;;15.80;64.20;98570.59;5102683;27;4770;-78
2023/08/09 06:48:01;;;;;;;;;;;;;;;15.81;64.21;98574.91;5104632;27;4865;-78
2023/08/09 06:50:53;;;;;;;;;;;;;;;15.97;63.63;98569.94;5110287;27;4572;-76
2023/08/09 06:53:45;;;;;;;;;;;;;;;15.94;nan;98574.06;5106055;27;4700;-76
2023/08/09 06:56:37;;;;;;;;;;;;;;;15.77;64.23;98582.03;5104757;27;4956;-76
2023/08/09 06:59:29;;;;;;;;;;;;;;;15.79;63.98;98591.47;5106779;27;4590;-77
2023/08/09 07:02:21;;;;;;;;;;;;;;;15.74;64.26;98599.72;5106429;27;4816;-79
2023/08/09 07:05:18;;;;;;;;;;;;;;;15.82;63.99;98603.63;5107865;27;4907;-76
2023/08/09 07:08:10;;;;;;;;;;;;;;;15.74;64.20;98604.34;5107183;27;4823;-78
2023/08/09 07:11:02;;;;;;;;;;;;;;;15.56;64.83;98619.56;5106131;27;4777;-76
2023/08/09 07:13:54;;;;;;;;;;;;;;;15.64;64.48;98621.59;5104920;27;4445;-78
2023/08/09 07:16:46;;;;;;;;;;;;;;;15.69;64.49;98629.66;5113245;27;4712;-78
2023/08/09 07:19:38;;;;;;;;;;;;;;;15.51;64.96;98644.09;5113960;27;4697;-78
2023/08/09 07:22:30;;;;;;;;;;;;;;;15.40;65.43;98640.75;5106588;27;4867;-77
2023/08/09 07:25:22;;;;;;;;;;;;;;;15.53;65.15;98650.81;5104115;27;4724;-79
2023/08/09 07:28:14;;;;;;;;;;;;;;;15.77;64.02;98661.56;5102771;27;4919;-76
2023/08/09 07:31:06;;;;;;;;;;;;;;;15.87;63.74;98657.84;5106919;27;4488;-76
2023/08/09 07:33:58;;;;;;;;;;;;;;;15.85;63.77;98666.28;5106224;27;4769;-76
2023/08/09 07:36:50;;;;;;;;;;;;;;;15.65;64.23;98672.84;5110018;27;4997;-78
2023/08/09 07:39:42;;;;;;;;;;;;;;;15.38;65.30;98692.59;5113964;27;7090;-78
2023/08/09 07:42:34;;;;;;;;;;;;;;;15.47;65.07;98700.03;5113164;27;4902;-76
2023/08/09 07:45:26;;;;;;;;;;;;;;;15.55;64.81;98696.63;5112280;27;4906;-77
2023/08/09 07:48:18;;;;;;;;;;;;;;;15.79;63.96;98708.19;5108822;27;4921;-76
2023/08/09 07:51:11;;;;;;;;;;;;;;;15.93;63.59;98710.13;5104488;27;4559;-78
2023/08/09 07:54:03;;;;;;;;;;;;;;;15.83;63.93;98716.53;5109847;27;4597;-77
2023/08/09 07:56:55;;;;;;;;;;;;;;;15.86;63.87;98726.81;5104522;27;5107;-77
2023/08/09 07:59:47;;;;;;;;;;;;;;;15.74;63.97;98734.63;5111906;27;4923;-76
2023/08/09 08:02:39;;;;;;;;;;;;;;;15.74;64.07;98740.06;5109810;27;4887;-78
2023/08/09 08:05:31;;;;;;;;;;;;;;;15.70;64.18;98747.97;5104668;27;4560;-76
2023/08/09 08:08:23;;;;;;;;;;;;;;;15.86;63.75;98759.38;5109829;27;4513;-76
2023/08/09 08:11:15;;;;;;;;;;;;;;;15.82;63.84;98759.16;5106989;27;4863;-76
2023/08/09 08:14:07;;;;;;;;;;;;;;;15.96;63.22;98761.91;5108258;27;4839;-75
2023/08/09 08:16:59;;;;;;;;;;;;;;;15.97;63.32;98770.84;5103284;27;4781;-75
2023/08/09 08:19:51;;;;;;;;;;;;;;;15.91;63.31;98778.28;5107342;27;4218;-77
2023/08/09 08:22:43;;;;;;;;;;;;;;;15.79;63.73;98780.66;5111380;27;5111;-76
2023/08/09 08:25:35;;;;;;;;;;;;;;;15.87;63.62;98791.63;5117906;27;4877;-77
2023/08/09 08:28:27;;;;;;;;;;;;;;;16.05;63.03;98787.25;5111746;27;2856;-77
2023/08/09 08:31:20;;;;;;;;;;;;;;;15.82;63.66;98799.06;5114008;27;4180;-75
2023/08/09 08:34:12;;;;;;;;;;;;;;;15.99;63.03;98807.47;5112633;27;2669;-77
2023/08/09 08:37:04;;;;;;;;;;;;;;;15.90;63.45;98811.97;5106780;27;4602;-77
2023/08/09 08:39:56;;;;;;;;;;;;;;;16.12;62.62;98812.13;5117383;27;3130;-76
2023/08/09 08:42:48;;;;;;;;;;;;;;;15.94;63.18;98818.41;5120973;27;2352;-76
2023/08/09 08:45:40;;;;;;;;;;;;;;;15.77;63.67;98820.88;5116450;27;2410;-75
2023/08/09 08:48:32;;;;;;;;;;;;;;;15.73;63.86;98820.63;5115077;27;2556;-74
2023/08/09 08:51:24;;;;;;;;;;;;;;;15.74;63.93;98827.69;5117011;27;2421;-76
2023/08/09 08:54:16;;;;;;;;;;;;;;;15.79;63.83;98824.88;5117522;27;2354;-77
2023/08/09 08:57:08;;;;;;;;;;;;;;;15.79;63.62;98834.94;5115723;27;2378;-75
2023/08/09 09:00:00;;;;;;;;;;;;;;;15.82;63.73;98843.28;5117845;27;2968;-77
2023/08/09 09:02:52;;;;;;;;;;;;;;;15.56;64.46;98845.56;5116618;27;2423;-76
2023/08/09 09:05:44;;;;;;;;;;;;;;;15.77;63.70;98845.31;5129536;27;1510;-75
2023/08/09 09:08:36;;;;;;;;;;;;;;;15.55;64.48;98854.00;5129291;27;2208;-75
2023/08/09 09:11:27;;;;;;;;;;;;;;;15.67;64.20;98846.22;5129602;27;4616;-76
2023/08/09 09:14:19;;;;;;;;;;;;;;;15.52;64.68;98863.53;5128484;27;1494;-75
2023/08/09 09:17:11;;;;;;;;;;;;;;;15.33;65.31;98860.00;5126831;27;2145;-75
2023/08/09 09:20:03;;;;;;;;;;;;;;;15.45;65.09;98877.47;5131540;27;2435;-75
2023/08/09 09:22:54;;;;;;;;;;;;;;;15.40;65.00;98872.09;5129143;27;1529;-78
2023/08/09 09:25:46;;;;;;;;;;;;;;;15.45;64.89;98877.47;5126175;27;1387;-77
2023/08/09 09:28:39;;;;;;;;;;;;;;;15.49;64.77;98880.38;5128387;27;2843;-76
2023/08/09 09:31:31;;;;;;;;;;;;;;;15.63;64.33;98885.91;5129432;27;1598;-77
2023/08/09 09:34:23;;;;;;;;;;;;;;;15.39;65.02;98880.53;5112279;27;2412;-77
2023/08/09 09:37:17;;;;;;;;;;;;;;;15.44;65.00;98899.44;5113776;27;2448;-77
2023/08/09 09:40:11;;;;;;;;;;;;;;;15.39;65.20;98896.81;5117943;27;2611;-77
2023/08/09 09:43:04;;;;;;;;;;;;;;;15.35;65.23;98902.03;5115677;27;5143;-77
2023/08/09 09:45:56;;;;;;;;;;;;;;;15.41;65.01;98906.28;5109178;27;5241;-76
2023/08/09 09:48:49;;;;;;;;;;;;;;;15.40;65.23;98912.00;5120466;27;5231;-75
2023/08/09 09:51:42;;;;;;;;;;;;;;;15.35;65.29;98918.31;5125603;27;1408;-78
2023/08/09 09:54:34;;;;;;;;;;;;;;;15.41;65.15;98919.00;5114906;27;5438;-75
2023/08/09 09:57:26;;;;;;;;;;;;;;;15.40;65.18;98922.84;5113534;27;5453;-77
2023/08/09 10:00:20;;;;;;;;;;;;;;;15.24;65.78;98930.38;5112815;27;5370;-76
2023/08/09 10:03:13;;;;;;;;;;;;;;;15.36;65.32;98929.94;5112822;27;5517;-77
2023/08/09 10:06:05;;;;;;;;;;;;;;;15.33;65.38;98936.75;5117663;27;5516;-76
2023/08/09 10:08:58;;;;;;;;;;;;;;;15.25;65.68;98942.81;5112403;27;5379;-76
2023/08/09 10:11:50;;;;;;;;;;;;;;;15.27;65.75;98937.91;5113576;27;5900;-77
2023/08/09 10:14:42;;;;;;;;;;;;;;;15.22;65.88;98944.19;5111954;27;6536;-75
2023/08/09 10:17:34;;;;;;;;;;;;;;;15.21;65.78;98947.22;5110829;27;6685;-77
2023/08/09 10:20:26;;;;;;;;;;;;;;;15.21;65.96;98949.94;5110503;27;5378;-77
2023/08/09 10:23:18;;;;;;;;;;;;;;;15.25;65.76;98950.97;5109531;27;6084;-77
2023/08/09 10:26:10;;;;;;;;;;;;;;;15.23;65.89;98961.28;5108873;27;5930;-76
2023/08/09 10:29:02;;;;;;;;;;;;;;;15.26;65.69;98947.13;5109532;27;6516;-78
2023/08/09 10:31:55;;;;;;;;;;;;;;;15.25;65.85;98950.97;5115301;27;5435;-76
2023/08/09 10:34:47;;;;;;;;;;;;;;;15.24;65.93;98952.06;5111634;27;5491;-77
2023/08/09 10:37:39;;;;;;;;;;;;;;;15.28;65.78;98963.13;5113202;27;5520;-76
2023/08/09 10:40:31;;;;;;;;;;;;;;;15.26;65.80;98971.53;5111886;27;5431;-77
2023/08/09 10:43:23;;;;;;;;;;;;;;;15.28;65.72;98972.06;5110594;27;5316;-76
2023/08/09 10:46:15;;;;;;;;;;;;;;;15.28;65.78;98979.41;5105602;27;5279;-75
2023/08/09 10:49:07;;;;;;;;;;;;;;;15.40;65.27;98986.03;5106602;27;5308;-76
2023/08/09 10:51:59;;;;;;;;;;;;;;;15.35;65.52;98985.28;5106720;27;5422;-77
2023/08/09 10:54:53;;;;;;;;;;;;;;;15.33;65.49;98987.50;5106995;28;5316;-76
2023/08/09 10:57:47;;;;;;;;;;;;;;;15.29;65.71;98994.56;5106609;27;5363;-77
2023/08/09 11:00:39;;;;;;;;;;;;;;;15.27;65.71;99000.31;5105639;28;5280;-78
2023/08/09 11:03:31;;;;;;;;;;;;;;;15.26;65.79;99001.38;5103047;27;5403;-76
2023/08/09 11:06:23;;;;;;;;;;;;;;;15.26;65.87;99000.56;5107370;28;5314;-77
2023/08/09 11:09:15;;;;;;;;;;;;;;;15.26;65.94;99003.28;5102704;27;5305;-77
2023/08/09 11:12:07;;;;;;;;;;;;;;;15.26;65.80;99014.94;5102969;27;6165;-79
2023/08/09 11:14:59;;;;;;;;;;;;;;;15.27;65.89;99023.91;5102580;27;5173;-77
2023/08/09 11:17:50;;;;;;;;;;;;;;;15.28;65.77;99023.59;5102247;28;5185;-75
2023/08/09 11:20:42;;;;;;;;;;;;;;;15.29;65.81;99027.13;5104376;27;5270;-77
2023/08/09 11:23:34;;;;;;;;;;;;;;;15.30;65.89;99034.19;5102472;27;5155;-77
2023/08/09 11:26:26;;;;;;;;;;;;;;;15.29;65.85;99037.97;5102561;27;6508;-77
2023/08/09 11:29:18;;;;;;;;;;;;;;;15.30;65.81;99048.53;5103490;27;5224;-77
2023/08/09 11:32:10;;;;;;;;;;;;;;;15.31;65.78;99043.91;5101924;27;5482;-77
2023/08/09 11:35:02;;;;;;;;;;;;;;;15.30;65.78;99061.31;5106319;27;5326;-76
2023/08/09 11:37:54;;;;;;;;;;;;;;;15.29;65.82;99054.25;5107894;27;5396;-77
2023/08/09 11:40:46;;;;;;;;;;;;;;;15.30;65.84;99066.72;5105219;27;5326;-76
2023/08/09 11:43:38;;;;;;;;;;;;;;;15.29;65.92;99071.31;5105603;27;5154;-78
2023/08/09 11:46:30;;;;;;;;;;;;;;;15.29;65.96;99082.16;5112118;27;5532;-76
2023/08/09 11:49:22;;;;;;;;;;;;;;;15.28;65.91;99091.41;5113375;27;5243;-77
2023/08/09 11:52:14;;;;;;;;;;;;;;;15.30;65.85;99100.06;5117588;27;6556;-76
2023/08/09 11:55:07;;;;;;;;;;;;;;;15.30;65.92;99102.00;5113797;27;5457;-75
2023/08/09 11:57:59;;;;;;;;;;;;;;;15.30;65.93;99105.50;5107418;27;6402;-75
2023/08/09 12:00:51;;;;;;;;;;;;;;;15.30;65.96;99112.84;5108154;27;5573;-78
2023/08/09 12:03:43;;;;;;;;;;;;;;;15.30;65.95;99116.34;5106016;27;5428;-79
2023/08/09 12:06:37;;;;;;;;;;;;;;;15.29;66.04;99109.28;5107623;27;5226;-77
2023/08/09 12:09:30;;;;;;;;;;;;;;;15.29;66.01;99122.84;5105615;27;6496;-78
2023/08/09 12:12:22;;;;;;;;;;;;;;;15.30;65.95;99120.97;5103796;27;5390;-78
2023/08/09 12:15:14;;;;;;;;;;;;;;;15.28;66.00;99121.25;5111794;27;5430;-78
2023/08/09 12:18:06;;;;;;;;;;;;;;;15.30;66.08;99124.50;5120826;27;5217;-77
2023/08/09 12:20:58;;;;;;;;;;;;;;;15.28;66.03;99126.66;5128249;27;4641;-77
2023/08/09 12:23:50;;;;;;;;;;;;;;;15.29;66.05;99122.03;5126652;27;1835;-78
2023/08/09 12:26:42;;;;;;;;;;;;;;;15.30;66.10;99126.41;5127224;27;2076;-79
2023/08/09 12:29:34;;;;;;;;;;;;;;;15.30;66.15;99132.63;5115462;27;5283;-77
2023/08/09 12:32:26;;;;;;;;;;;;;;;15.31;66.12;99133.44;5112482;27;5188;-77
2023/08/09 12:35:19;;;;;;;;;;;;;;;15.31;66.12;99138.84;5113777;27;5271;-77
2023/08/09 12:38:10;;;;;;;;;;;;;;;15.31;66.13;99136.16;5113580;27;5302;-76
2023/08/09 12:41:02;;;;;;;;;;;;;;;15.33;66.15;99148.31;5114409;27;8012;-78
2023/08/09 12:43:54;;;;;;;;;;;;;;;15.33;66.09;99150.25;5111903;27;6759;-76
2023/08/09 12:46:46;;;;;;;;;;;;;;;15.34;66.12;99154.56;5106927;27;5229;-76
2023/08/09 12:49:38;;;;;;;;;;;;;;;15.35;66.06;99162.44;5106729;27;5247;-75
2023/08/09 12:52:30;;;;;;;;;;;;;;;15.34;66.06;99158.06;5105151;27;6391;-76
2023/08/09 12:55:22;;;;;;;;;;;;;;;15.35;66.10;99172.44;5102959;27;5329;-77
2023/08/09 12:58:14;;;;;;;;;;;;;;;15.35;66.11;99159.72;5112734;27;5458;-76
2023/08/09 13:01:07;;;;;;;;;;;;;;;15.35;66.05;99178.69;5114504;27;5474;-77
2023/08/09 13:03:58;;;;;;;;;;;;;;;15.35;66.13;99167.00;5112643;27;5435;-77
2023/08/09 13:06:49;;;;;;;;;;;;;;;15.35;66.22;99173.28;5111221;27;6512;-77
2023/08/09 13:09:41;;;;;;;;;;;;;;;15.36;66.29;99177.59;5112646;27;5433;-77
2023/08/09 13:12:33;;;;;;;;;;;;;;;15.36;66.22;99180.31;5116226;27;5447;-75
2023/08/09 13:15:25;;;;;;;;;;;;;;;15.37;66.21;99183.81;5112970;27;5306;-77
2023/08/09 13:18:17;;;;;;;;;;;;;;;15.37;66.25;99189.25;5116951;27;5220;-77
2023/08/09 13:21:11;;;;;;;;;;;;;;;15.38;66.24;99190.84;5110220;27;2256;-77
2023/08/09 13:24:05;;;;;;;;;;;;;;;15.38;66.38;99188.97;5112730;27;2211;-77
2023/08/09 13:26:57;;;;;;;;;;;;;;;15.38;66.22;99202.53;5108509;27;4388;-77
2023/08/09 13:29:49;;;;;;;;;;;;;;;15.37;66.21;99198.19;5100887;27;5576;-78
2023/08/09 13:32:41;;;;;;;;;;;;;;;15.40;66.33;99204.97;5110676;27;4684;-79
2023/08/09 13:35:34;;;;;;;;;;;;;;;15.40;66.25;99210.38;5109763;27;5230;-77
2023/08/09 13:38:26;;;;;;;;;;;;;;;15.39;66.24;99208.78;5114774;27;2605;-77
2023/08/09 13:41:18;;;;;;;;;;;;;;;15.39;66.18;99212.28;5116363;27;2453;-78
2023/08/09 13:44:11;;;;;;;;;;;;;;;15.40;66.29;99219.31;5112639;27;2415;-77
2023/08/09 13:47:02;;;;;;;;;;;;;;;15.41;66.36;99220.13;5105732;27;6528;-76
2023/08/09 13:49:53;;;;;;;;;;;;;;;15.41;66.25;99223.69;5113187;27;2338;-76
2023/08/09 13:52:45;;;;;;;;;;;;;;;15.42;66.23;99221.78;5106315;27;4850;-77
2023/08/09 13:55:37;;;;;;;;;;;;;;;15.42;66.28;99213.63;5110471;27;3540;-77
2023/08/09 13:58:29;;;;;;;;;;;;;;;15.43;66.42;99224.19;5109923;27;3592;-75
2023/08/09 14:01:21;;;;;;;;;;;;;;;15.43;66.37;99217.94;5110042;27;2389;-77
2023/08/09 14:04:14;;;;;;;;;;;;;;;15.45;66.34;99237.47;5115264;27;2550;-77
2023/08/09 14:07:06;;;;;;;;;;;;;;;15.46;66.51;99236.38;5119504;27;2959;-76
2023/08/09 14:09:57;;;;;;;;;;;;;;;15.47;66.40;99237.19;5123028;27;1898;-77
2023/08/09 14:12:49;;;;;;;;;;;;;;;15.45;66.46;99241.00;5122869;27;3137;-77
2023/08/09 14:15:42;;;;;;;;;;;;;;;15.47;66.45;99257.00;5128098;27;1788;-76
2023/08/09 14:18:34;;;;;;;;;;;;;;;15.47;66.39;99262.44;5127114;27;2053;-77
2023/08/09 14:21:26;;;;;;;;;;;;;;;15.46;66.48;99266.22;5122915;27;1551;-75
2023/08/09 14:24:17;;;;;;;;;;;;;;;15.48;66.44;99271.38;5125399;27;1813;-77
2023/08/09 14:27:09;;;;;;;;;;;;;;;15.49;66.44;99279.22;5118501;27;5066;-79
2023/08/09 14:30:00;;;;;;;;;;;;;;;15.49;66.45;99284.66;5120775;27;4857;-75
2023/08/09 14:32:51;;;;;;;;;;;;;;;15.50;66.46;99294.44;5124160;27;4265;-77
2023/08/09 14:35:43;;;;;;;;;;;;;;;15.50;66.62;99302.56;5125549;27;1627;-77
2023/08/09 14:38:37;;;;;;;;;;;;;;;15.51;66.60;99306.09;5122318;27;1608;-76
2023/08/09 14:41:29;;;;;;;;;;;;;;;15.52;66.60;99315.84;5122102;27;1599;-77
2023/08/09 14:44:21;;;;;;;;;;;;;;;15.52;66.55;99311.22;5123966;27;1554;-77
2023/08/09 14:47:13;;;;;;;;;;;;;;;15.52;66.60;99311.22;5126219;28;4434;-76
2023/08/09 14:50:05;;;;;;;;;;;;;;;15.54;66.44;99300.91;5127130;28;1894;-77
2023/08/09 14:52:57;;;;;;;;;;;;;;;15.54;66.54;99305.53;5130512;28;2061;-77
2023/08/09 14:55:48;;;;;;;;;;;;;;;15.54;66.64;99313.66;5117295;27;1403;-77
2023/08/09 14:58:43;;;;;;;;;;;;;;;15.56;66.63;99325.03;5123093;27;1372;-77
2023/08/09 15:01:34;;;;;;;;;;;;;;;15.55;66.58;99332.34;5118978;28;1573;-77
2023/08/09 15:04:26;;;;;;;;;;;;;;;15.55;66.58;99324.22;5126564;27;1603;-79
2023/08/09 15:07:18;;;;;;;;;;;;;;;15.56;66.54;99322.31;5123054;28;1636;-76